Time;durP1;ratioP1;P1;durP2;ratioP2;P2;SDS_P1;SDS_P2;PMS_P1;PMS_P2;Temp;Humidity;BMP_temperature;BMP_pressure;BME280_temperature;BME280_humidity;BME280_pressure;Samples;Min_cycle;Max_cycle;Signal;HPM_P1;HPM_P2
2023/04/23 00:01:07;;;;;;;13.15;9.00;;;;;;;7.61;92.28;99439.22;5048141;28;20064;-48
2023/04/23 00:03:36;;;;;;;15.60;9.88;;;;;;;7.62;92.28;99427.03;5052505;28;20051;-47
2023/04/23 00:06:05;;;;;;;14.77;10.07;;;;;;;7.62;92.23;99435.31;5034472;28;20087;-44
2023/04/23 00:08:32;;;;;;;15.45;9.70;;;;;;;7.65;92.33;99431.03;5052039;28;20088;-44
2023/04/23 00:11:00;;;;;;;14.70;10.25;;;;;;;7.67;92.29;99429.53;5052125;28;20143;-44
2023/04/23 00:13:27;;;;;;;18.42;10.02;;;;;;;7.68;92.45;99424.78;5052136;28;20041;-44
2023/04/23 00:15:54;;;;;;;18.02;10.65;;;;;;;7.68;92.41;99428.34;5049462;28;20557;-46
2023/04/23 00:18:21;;;;;;;18.10;10.23;;;;;;;7.69;92.61;99418.94;5052338;28;20049;-44
2023/04/23 00:20:48;;;;;;;16.00;11.30;;;;;;;7.68;92.30;99411.81;5052089;28;20080;-44
2023/04/23 00:23:15;;;;;;;13.02;10.23;;;;;;;7.69;92.55;99424.44;5051375;28;20045;-44
2023/04/23 00:25:42;;;;;;;17.17;11.23;;;;;;;7.67;92.65;99435.03;5051042;28;20529;-44
2023/04/23 00:28:09;;;;;;;20.88;11.98;;;;;;;7.66;92.75;99427.09;5051800;28;20049;-45
2023/04/23 00:30:36;;;;;;;18.02;11.95;;;;;;;7.67;92.94;99429.53;5054761;28;20037;-45
2023/04/23 00:33:03;;;;;;;17.75;11.25;;;;;;;7.70;92.92;99425.25;5051806;28;20049;-44
2023/04/23 00:35:30;;;;;;;20.45;12.18;;;;;;;7.73;92.84;99430.81;5051532;28;20025;-44
2023/04/23 00:37:56;;;;;;;23.13;12.95;;;;;;;7.74;92.85;99435.19;5051923;28;20080;-48
2023/04/23 00:40:23;;;;;;;27.90;15.75;;;;;;;7.76;92.75;99427.34;5051348;28;20538;-47
2023/04/23 00:42:52;;;;;;;23.15;13.38;;;;;;;7.79;92.79;99429.41;5051216;28;20055;-44
2023/04/23 00:45:23;;;;;;;21.98;12.65;;;;;;;7.82;92.87;99431.44;5039713;28;20048;-51
2023/04/23 00:47:52;;;;;;;21.73;14.35;;;;;;;7.83;92.60;99427.53;5051352;28;20052;-44
2023/04/23 00:50:19;;;;;;;24.90;14.23;;;;;;;7.78;92.82;99425.03;5051024;28;20048;-44
2023/04/23 00:52:50;;;;;;;23.33;13.65;;;;;;;7.73;92.83;99425.31;5051147;28;20473;-44
2023/04/23 00:55:19;;;;;;;27.83;16.55;;;;;;;7.74;93.44;99434.38;5051672;28;20041;-44
2023/04/23 00:57:47;;;;;;;21.65;13.50;;;;;;;7.74;93.23;99437.13;5051016;28;20487;-44
2023/04/23 01:00:14;;;;;;;26.83;15.13;;;;;;;7.73;93.16;99428.06;5035874;28;20414;-44
2023/04/23 01:02:43;;;;;;;26.48;15.38;;;;;;;7.70;93.29;99428.81;5050788;28;20098;-45
2023/04/23 01:05:10;;;;;;;25.30;15.38;;;;;;;7.69;93.53;99418.94;5050783;28;20136;-44
2023/04/23 01:07:37;;;;;;;23.88;15.80;;;;;;;7.70;93.36;99419.75;5050882;28;20092;-44
2023/04/23 01:10:05;;;;;;;20.90;13.32;;;;;;;7.74;93.75;99424.16;5050089;28;20139;-48
2023/04/23 01:12:33;;;;;;;26.85;15.75;;;;;;;7.75;93.46;99422.22;5048758;28;20057;-44
2023/04/23 01:15:01;;;;;;;26.17;15.40;;;;;;;7.76;93.68;99427.34;5045668;28;20075;-47
2023/04/23 01:17:29;;;;;;;29.30;15.75;;;;;;;7.75;93.32;99425.78;5050748;28;20770;-50
2023/04/23 01:19:56;;;;;;;32.42;17.15;;;;;;;7.72;93.32;99415.47;5050456;28;20059;-48
2023/04/23 01:22:23;;;;;;;25.25;14.50;;;;;;;7.73;93.68;99427.28;5050962;28;20522;-44
2023/04/23 01:24:51;;;;;;;23.25;13.82;;;;;;;7.70;93.51;99428.81;5050602;28;20040;-44
2023/04/23 01:27:19;;;;;;;23.90;14.18;;;;;;;7.70;93.61;99423.31;5050796;28;20116;-44
2023/04/23 01:29:46;;;;;;;25.27;14.15;;;;;;;7.69;93.46;99429.97;5048546;28;20482;-45
2023/04/23 01:32:14;;;;;;;24.67;14.75;;;;;;;7.68;93.38;99425.59;5033057;28;20151;-46
2023/04/23 01:34:42;;;;;;;23.42;13.60;;;;;;;7.64;93.44;99433.00;5051014;28;20063;-44
2023/04/23 01:37:10;;;;;;;22.65;14.30;;;;;;;7.63;93.41;99423.13;5050457;28;20490;-44
2023/04/23 01:39:37;;;;;;;26.40;16.35;;;;;;;7.62;93.37;99427.03;5050443;28;20048;-44
2023/04/23 01:42:06;;;;;;;25.80;15.45;;;;;;;7.61;93.41;99432.88;5050580;28;20055;-45
2023/04/23 01:44:32;;;;;;;26.85;15.10;;;;;;;7.62;93.42;99431.75;5055819;28;20041;-44
2023/04/23 01:46:59;;;;;;;29.33;16.60;;;;;;;7.59;93.63;99421.44;5050811;28;20037;-44
2023/04/23 01:49:26;;;;;;;28.55;16.75;;;;;;;7.59;93.79;99430.50;5049719;28;20045;-45
2023/04/23 01:51:53;;;;;;;26.67;15.98;;;;;;;7.59;93.49;99427.75;5050123;28;20041;-47
2023/04/23 01:54:20;;;;;;;27.25;16.17;;;;;;;7.59;93.52;99421.44;5050331;28;20041;-44
2023/04/23 01:56:46;;;;;;;27.20;16.88;;;;;;;7.57;93.70;99413.53;5050639;28;20041;-44
2023/04/23 01:59:13;;;;;;;25.63;15.20;;;;;;;7.56;93.77;99422.16;5048305;28;20051;-47
2023/04/23 02:01:44;;;;;;;27.70;16.33;;;;;;;7.53;93.76;99428.38;5031858;28;20049;-46
2023/04/23 02:04:13;;;;;;;23.60;13.55;;;;;;;7.50;94.00;99423.56;5052245;28;20491;-47
2023/04/23 02:06:43;;;;;;;25.20;15.63;;;;;;;7.50;93.79;99424.38;5050253;28;20033;-44
2023/04/23 02:09:10;;;;;;;25.90;15.57;;;;;;;7.48;94.04;99420.38;5050185;28;20055;-44
2023/04/23 02:11:37;;;;;;;24.48;14.77;;;;;;;7.49;94.19;99416.47;5049831;28;20546;-44
2023/04/23 02:14:05;;;;;;;19.45;12.43;;;;;;;7.50;94.24;99421.63;5047592;28;20057;-45
2023/04/23 02:16:33;;;;;;;16.30;9.52;;;;;;;7.46;94.12;99418.00;5049831;28;20052;-48
2023/04/23 02:19:00;;;;;;;12.18;8.00;;;;;;;7.44;93.97;99423.03;5048584;28;20496;-44
2023/04/23 02:21:28;;;;;;;13.13;7.65;;;;;;;7.39;93.72;99417.81;5049621;28;20807;-44
2023/04/23 02:23:55;;;;;;;9.15;6.13;;;;;;;7.31;93.49;99421.53;5049131;28;20029;-49
2023/04/23 02:26:23;;;;;;;9.00;6.50;;;;;;;7.27;93.80;99424.22;5049639;28;20392;-45
2023/04/23 02:28:50;;;;;;;8.20;4.85;;;;;;;7.28;93.81;99427.78;5049149;28;20045;-44
2023/04/23 02:31:19;;;;;;;6.63;5.43;;;;;;;7.26;93.86;99422.59;5053632;28;20041;-44
2023/04/23 02:33:46;;;;;;;5.32;3.63;;;;;;;7.25;93.77;99429.25;5047814;28;20052;-53
2023/04/23 02:36:13;;;;;;;3.53;2.42;;;;;;;7.22;93.58;99424.50;5050048;28;20051;-43
2023/04/23 02:38:41;;;;;;;4.72;2.88;;;;;;;7.21;93.63;99433.09;5049379;28;20041;-48
2023/04/23 02:41:08;;;;;;;4.93;2.90;;;;;;;7.22;93.54;99429.19;5049123;28;20493;-44
2023/04/23 02:43:34;;;;;;;4.22;3.05;;;;;;;7.22;93.23;99429.19;5048263;28;20426;-44
2023/04/23 02:46:07;;;;;;;5.95;2.97;;;;;;;7.20;93.52;99415.75;5055893;28;20087;-44
2023/04/23 02:48:39;;;;;;;4.25;3.15;;;;;;;7.25;93.54;99420.22;5048932;28;20041;-46
2023/04/23 02:51:09;;;;;;;3.42;2.40;;;;;;;7.24;93.13;99415.88;5048698;28;20477;-48
2023/04/23 02:53:36;;;;;;;3.50;2.85;;;;;;;7.26;93.17;99421.81;5049584;28;20053;-47
2023/04/23 02:56:03;;;;;;;4.72;3.10;;;;;;;7.28;93.26;99422.28;5049325;28;20057;-49
2023/04/23 02:58:30;;;;;;;4.47;2.83;;;;;;;7.28;92.90;99419.53;5047157;28;20037;-47
2023/04/23 03:00:57;;;;;;;3.40;2.47;;;;;;;7.29;92.92;99424.66;5080529;23;20508;-44
2023/04/23 03:03:25;;;;;;;4.75;2.70;;;;;;;7.31;92.77;99421.53;5059509;28;20045;-45
2023/04/23 03:05:54;;;;;;;2.72;2.30;;;;;;;7.28;92.47;99422.28;5048525;28;20053;-46
2023/04/23 03:08:20;;;;;;;3.08;2.13;;;;;;;7.21;92.41;99433.09;5049162;28;20061;-51
2023/04/23 03:10:47;;;;;;;4.60;2.45;;;;;;;7.15;92.66;99431.75;5049030;28;20041;-48
2023/04/23 03:13:14;;;;;;;2.15;1.92;;;;;;;7.13;92.81;99421.09;5048850;28;20049;-47
2023/04/23 03:15:41;;;;;;;4.88;2.78;;;;;;;7.08;92.72;99417.81;5048815;28;20102;-44
2023/04/23 03:18:08;;;;;;;3.53;2.55;;;;;;;7.06;93.08;99436.63;5048685;28;20044;-45
2023/04/23 03:20:35;;;;;;;8.00;2.92;;;;;;;7.03;93.15;99429.06;5030550;28;20052;-43
2023/04/23 03:23:05;;;;;;;3.22;2.72;;;;;;;7.00;92.99;99427.84;5048542;28;20040;-45
2023/04/23 03:25:32;;;;;;;3.10;2.50;;;;;;;6.99;93.17;99425.44;5048434;28;20409;-44
2023/04/23 03:28:00;;;;;;;3.65;2.97;;;;;;;7.00;93.24;99438.03;5058405;28;20448;-44
2023/04/23 03:30:27;;;;;;;4.65;2.65;;;;;;;7.02;93.34;99432.97;5054636;28;20040;-44
2023/04/23 03:32:56;;;;;;;3.92;3.10;;;;;;;7.02;93.23;99432.97;5048748;28;20132;-44
2023/04/23 03:35:24;;;;;;;4.28;3.40;;;;;;;7.03;93.19;99440.09;5048518;28;20367;-45
2023/04/23 03:37:51;;;;;;;5.28;4.00;;;;;;;7.05;93.30;99435.03;5052244;28;20478;-50
2023/04/23 03:40:19;;;;;;;4.60;3.80;;;;;;;7.04;93.01;99438.94;5052571;28;20041;-48
2023/04/23 03:42:46;;;;;;;5.57;3.85;;;;;;;7.05;93.05;99438.56;5052502;28;20151;-44
2023/04/23 03:45:15;;;;;;;7.20;5.15;;;;;;;7.06;93.04;99442.13;5053784;28;20059;-44
2023/04/23 03:47:42;;;;;;;9.40;6.72;;;;;;;7.05;93.09;99440.53;5052366;28;20049;-43
2023/04/23 03:50:12;;;;;;;11.18;6.85;;;;;;;7.06;93.26;99442.13;5039278;28;20037;-43
2023/04/23 03:52:39;;;;;;;11.52;8.18;;;;;;;7.06;93.07;99439.38;5051987;28;20414;-43
2023/04/23 03:55:06;;;;;;;15.68;9.57;;;;;;;7.05;92.98;99435.03;5052362;28;20502;-43
2023/04/23 03:57:34;;;;;;;16.85;10.25;;;;;;;7.08;93.33;99445.31;5051990;28;20491;-43
2023/04/23 04:00:01;;;;;;;18.00;11.20;;;;;;;7.11;93.46;99439.13;5052110;28;20087;-45
2023/04/23 04:02:28;;;;;;;23.50;12.50;;;;;;;7.11;93.28;99439.13;5063830;28;20531;-44
2023/04/23 04:04:55;;;;;;;22.67;13.32;;;;;;;7.10;93.27;99449.31;5052306;28;20037;-45
2023/04/23 04:07:22;;;;;;;28.23;14.38;;;;;;;7.11;93.40;99444.63;5052059;28;20056;-48
2023/04/23 04:09:49;;;;;;;23.05;14.20;;;;;;;7.12;93.69;99452.50;5052007;28;20409;-44
2023/04/23 04:12:15;;;;;;;25.38;15.30;;;;;;;7.15;93.63;99440.00;5051768;28;20048;-43
2023/04/23 04:14:42;;;;;;;22.50;13.05;;;;;;;7.15;93.72;99437.25;5050096;28;20141;-44
2023/04/23 04:17:09;;;;;;;21.65;12.95;;;;;;;7.17;93.80;99443.22;5051652;28;20175;-45
2023/04/23 04:19:36;;;;;;;24.17;13.55;;;;;;;7.16;93.71;99442.41;5052633;28;20454;-43
2023/04/23 04:22:02;;;;;;;24.25;14.43;;;;;;;7.16;93.92;99436.09;5051466;28;20513;-46
2023/04/23 04:24:31;;;;;;;21.77;13.18;;;;;;;7.18;94.16;99437.34;5051408;28;20558;-45
2023/04/23 04:27:01;;;;;;;24.40;13.18;;;;;;;7.20;94.04;99428.75;5051580;28;20049;-44
2023/04/23 04:29:28;;;;;;;22.63;13.13;;;;;;;7.26;94.27;99425.34;5052530;28;20048;-48
2023/04/23 04:31:55;;;;;;;23.30;13.77;;;;;;;7.30;93.96;99429.03;5054423;28;20048;-51
2023/04/23 04:34:23;;;;;;;25.10;14.45;;;;;;;7.30;93.88;99420.75;5052103;28;20394;-44
2023/04/23 04:36:53;;;;;;;22.73;14.38;;;;;;;7.33;93.91;99427.50;5051698;28;20481;-46
2023/04/23 04:39:20;;;;;;;24.02;14.48;;;;;;;7.28;93.86;99427.78;5051389;28;20041;-45
2023/04/23 04:41:47;;;;;;;23.73;14.88;;;;;;;7.23;93.99;99431.56;5051209;28;20478;-45
2023/04/23 04:44:15;;;;;;;24.05;14.75;;;;;;;7.20;94.38;99439.75;5056106;28;20151;-45
2023/04/23 04:46:42;;;;;;;20.13;13.15;;;;;;;7.20;94.61;99448.78;5052431;28;20048;-45
2023/04/23 04:49:10;;;;;;;24.15;14.35;;;;;;;7.20;94.55;99445.25;5033968;28;20051;-44
2023/04/23 04:51:38;;;;;;;24.20;13.82;;;;;;;7.19;94.93;99438.97;5051094;28;20079;-49
2023/04/23 04:54:06;;;;;;;26.25;14.32;;;;;;;7.21;94.97;99438.59;5051587;28;20409;-45
2023/04/23 04:56:34;;;;;;;23.55;14.48;;;;;;;7.20;94.81;99442.50;5051195;28;20041;-46
2023/04/23 04:59:01;;;;;;;25.58;15.38;;;;;;;7.20;94.80;99443.28;5051447;28;20090;-47
2023/04/23 05:01:28;;;;;;;18.10;12.40;;;;;;;7.21;95.09;99444.09;5038021;28;20051;-44
2023/04/23 05:03:56;;;;;;;18.80;11.88;;;;;;;7.21;94.87;99444.09;5051192;28;20071;-47
2023/04/23 05:06:23;;;;;;;20.30;12.73;;;;;;;7.18;94.95;99445.59;5051278;28;20041;-44
2023/04/23 05:08:49;;;;;;;20.05;11.43;;;;;;;7.14;94.87;99443.91;5051924;28;20052;-45
2023/04/23 05:11:18;;;;;;;19.63;12.15;;;;;;;7.13;95.06;99447.81;5051201;28;20451;-47
2023/04/23 05:13:46;;;;;;;17.83;12.05;;;;;;;7.13;94.93;99456.06;5050701;28;20123;-48
2023/04/23 05:16:13;;;;;;;21.00;12.52;;;;;;;7.16;95.17;99452.63;5051042;28;20051;-44
2023/04/23 05:18:41;;;;;;;18.63;11.48;;;;;;;7.15;95.04;99446.31;5050605;28;20044;-44
2023/04/23 05:21:08;;;;;;;16.70;11.75;;;;;;;7.16;95.20;99452.63;5050954;28;20148;-44
2023/04/23 05:23:35;;;;;;;19.83;12.68;;;;;;;7.15;95.21;99448.25;5050666;28;20053;-44
2023/04/23 05:26:02;;;;;;;18.92;12.43;;;;;;;7.15;95.16;99453.75;5051098;28;20061;-46
2023/04/23 05:28:30;;;;;;;21.33;13.27;;;;;;;7.16;95.24;99460.88;5050375;28;20040;-48
2023/04/23 05:30:57;;;;;;;22.50;12.57;;;;;;;7.13;95.00;99456.06;5055005;28;20067;-44
2023/04/23 05:33:25;;;;;;;21.40;13.32;;;;;;;7.12;95.05;99460.78;5050370;28;20486;-45
2023/04/23 05:35:58;;;;;;;23.17;14.10;;;;;;;7.12;95.38;99468.25;5050327;28;20041;-44
2023/04/23 05:38:25;;;;;;;22.63;15.43;;;;;;;7.11;95.44;99461.13;5050138;28;20044;-43
2023/04/23 05:40:52;;;;;;;26.10;13.63;;;;;;;7.14;95.59;99471.44;5050612;28;20053;-44
2023/04/23 05:43:19;;;;;;;20.52;13.10;;;;;;;7.18;95.40;99466.81;5050560;28;20045;-46
2023/04/23 05:45:45;;;;;;;21.58;14.13;;;;;;;7.18;95.52;99483.34;5057029;28;20052;-44
2023/04/23 05:48:12;;;;;;;24.33;14.77;;;;;;;7.17;95.49;99471.53;5032008;28;20041;-44
2023/04/23 05:50:39;;;;;;;21.08;13.43;;;;;;;7.17;95.53;99476.25;5050064;28;20053;-45
2023/04/23 05:53:06;;;;;;;22.73;13.93;;;;;;;7.16;95.55;99478.19;5050395;28;20123;-44
2023/04/23 05:55:33;;;;;;;26.38;14.82;;;;;;;7.13;95.28;99469.81;5050201;28;20061;-44
2023/04/23 05:57:59;;;;;;;25.15;15.75;;;;;;;7.09;95.61;99474.47;5049746;28;20049;-44
2023/04/23 06:00:26;;;;;;;24.13;14.68;;;;;;;7.05;95.30;99470.78;5050066;28;20127;-45
2023/04/23 06:02:53;;;;;;;24.85;14.82;;;;;;;7.00;95.59;99471.84;5049868;28;20056;-45
2023/04/23 06:05:20;;;;;;;28.17;16.77;;;;;;;6.97;95.66;99471.75;5050001;28;20483;-43
2023/04/23 06:07:47;;;;;;;29.88;16.38;;;;;;;6.96;95.81;99472.94;5049794;28;20436;-44
2023/04/23 06:10:14;;;;;;;28.92;18.08;;;;;;;6.96;95.79;99475.69;5049017;28;20053;-44
2023/04/23 06:12:41;;;;;;;26.52;17.08;;;;;;;6.97;95.64;99474.50;5049495;28;20076;-44
2023/04/23 06:15:08;;;;;;;24.67;14.65;;;;;;;6.97;95.63;99477.25;5049798;28;20510;-44
2023/04/23 06:17:36;;;;;;;26.60;16.15;;;;;;;6.97;95.66;99472.56;5049744;28;20556;-45
2023/04/23 06:20:04;;;;;;;26.92;14.75;;;;;;;6.96;95.74;99479.22;5049594;28;20052;-44
2023/04/23 06:22:31;;;;;;;23.17;14.90;;;;;;;7.01;95.77;99478.97;5049532;28;20067;-44
2023/04/23 06:24:58;;;;;;;28.67;15.77;;;;;;;7.05;95.65;99484.56;5049104;28;20411;-44
2023/04/23 06:27:25;;;;;;;23.27;14.63;;;;;;;7.06;95.78;99472.41;5049431;28;20037;-44
2023/04/23 06:29:52;;;;;;;26.00;14.05;;;;;;;7.06;95.78;99483.41;5053462;28;20059;-44
2023/04/23 06:32:20;;;;;;;23.33;13.98;;;;;;;7.06;95.76;99480.66;5049623;28;20525;-46
2023/04/23 06:34:47;;;;;;;22.75;14.55;;;;;;;7.08;95.94;99492.09;5056541;28;20044;-45
2023/04/23 06:37:27;;;;;;;18.33;12.23;;;;;;;7.09;96.09;99488.22;5048920;28;20052;-44
2023/04/23 06:39:55;;;;;;;19.35;12.35;;;;;;;7.15;95.83;99497.78;5049200;28;20487;-45
2023/04/23 06:42:22;;;;;;;18.75;11.15;;;;;;;7.19;95.69;99504.22;5047923;28;20090;-48
2023/04/23 06:44:50;;;;;;;18.17;12.30;;;;;;;7.23;95.66;99505.09;5055267;28;20063;-44
2023/04/23 06:47:18;;;;;;;19.45;11.75;;;;;;;7.30;95.63;99502.53;5048776;28;20076;-50
2023/04/23 06:49:45;;;;;;;19.15;11.85;;;;;;;7.35;95.63;99499.53;5049079;28;20401;-45
2023/04/23 06:52:11;;;;;;;17.90;11.10;;;;;;;7.37;95.60;99505.47;5049533;28;20128;-44
2023/04/23 06:54:38;;;;;;;15.65;11.60;;;;;;;7.41;95.74;99509.13;5048772;28;20044;-45
2023/04/23 06:57:05;;;;;;;20.77;12.07;;;;;;;7.45;95.60;99509.19;5048797;28;20433;-44
2023/04/23 06:59:32;;;;;;;18.15;11.13;;;;;;;7.50;95.65;99517.19;5048638;28;20041;-44
2023/04/23 07:01:59;;;;;;;19.05;11.23;;;;;;;7.56;95.68;99513.84;5048859;28;20068;-44
2023/04/23 07:04:25;;;;;;;17.08;11.27;;;;;;;7.61;95.64;99519.09;5048738;28;20044;-44
2023/04/23 07:06:53;;;;;;;16.27;10.00;;;;;;;7.68;95.69;99523.94;5031158;28;20072;-45
2023/04/23 07:09:20;;;;;;;18.00;10.07;;;;;;;7.77;95.64;99525.38;5048941;28;20047;-50
2023/04/23 07:11:47;;;;;;;17.30;10.40;;;;;;;7.85;95.67;99529.13;5047938;28;20063;-44
2023/04/23 07:14:13;;;;;;;18.95;11.45;;;;;;;7.90;95.41;99523.34;5048903;28;20394;-44
2023/04/23 07:16:40;;;;;;;16.63;10.45;;;;;;;7.94;95.48;99536.03;5043296;28;20060;-49
2023/04/23 07:19:07;;;;;;;16.33;10.73;;;;;;;7.98;95.62;99530.63;5047715;28;20143;-44
2023/04/23 07:21:34;;;;;;;14.80;10.05;;;;;;;8.03;95.53;99537.81;5048672;28;20139;-50
2023/04/23 07:24:07;;;;;;;22.92;10.30;;;;;;;8.05;95.40;99535.50;5048705;28;20135;-45
2023/04/23 07:26:34;;;;;;;18.77;10.40;;;;;;;8.05;95.37;99533.53;5048852;28;20048;-48
2023/04/23 07:29:03;;;;;;;20.65;9.82;;;;;;;8.07;95.42;99536.75;5048279;28;20128;-44
2023/04/23 07:31:30;;;;;;;13.60;8.82;;;;;;;8.10;95.43;99533.25;5052731;28;20402;-47
2023/04/23 07:33:56;;;;;;;13.15;9.00;;;;;;;8.14;95.49;99541.63;5048714;28;20502;-48
2023/04/23 07:36:26;;;;;;;13.55;9.48;;;;;;;8.16;95.47;99531.03;5048356;28;20056;-45
2023/04/23 07:38:53;;;;;;;13.13;8.70;;;;;;;8.18;95.34;99542.53;5048492;28;20041;-49
2023/04/23 07:41:20;;;;;;;11.75;8.23;;;;;;;8.26;95.61;99533.25;5048298;28;20127;-44
2023/04/23 07:43:48;;;;;;;13.52;7.35;;;;;;;8.34;95.33;99535.81;5050472;28;20053;-49
2023/04/23 07:46:15;;;;;;;10.65;6.57;;;;;;;8.38;95.30;99530.41;5053681;28;20051;-45
2023/04/23 07:48:42;;;;;;;10.30;6.65;;;;;;;8.38;95.11;99547.75;5048326;28;20049;-44
2023/04/23 07:51:08;;;;;;;11.50;7.15;;;;;;;8.36;95.17;99538.25;5030142;28;20079;-45
2023/04/23 07:53:35;;;;;;;7.90;6.50;;;;;;;8.36;95.40;99543.75;5048489;28;20055;-45
2023/04/23 07:56:02;;;;;;;9.32;6.55;;;;;;;8.39;95.59;99557.59;5048171;28;20041;-45
2023/04/23 07:58:28;;;;;;;14.07;8.82;;;;;;;8.45;95.73;99552.59;5048064;28;20133;-47
2023/04/23 08:00:55;;;;;;;10.10;6.93;;;;;;;8.48;96.09;99568.44;5048738;28;20041;-44
2023/04/23 08:03:22;;;;;;;11.27;7.00;;;;;;;8.53;96.42;99559.88;5048785;28;20045;-48
2023/04/23 08:05:49;;;;;;;12.68;7.85;;;;;;;8.62;97.13;99552.22;5048004;28;20152;-44
2023/04/23 08:08:17;;;;;;;11.75;7.43;;;;;;;8.73;97.95;99550.50;5048250;28;20056;-44
2023/04/23 08:10:45;;;;;;;12.13;8.57;;;;;;;8.85;98.94;99550.34;5048068;28;20076;-45
2023/04/23 08:13:11;;;;;;;11.85;8.02;;;;;;;9.00;100.00;99563.25;5048366;28;20057;-44
2023/04/23 08:15:38;;;;;;;11.45;7.93;;;;;;;9.19;100.00;99551.41;5048286;28;20452;-43
2023/04/23 08:18:05;;;;;;;12.27;7.65;;;;;;;9.39;100.00;99558.53;5048918;28;20152;-47
2023/04/23 08:20:33;;;;;;;9.65;6.88;;;;;;;9.65;100.00;99563.34;5048142;28;20390;-46
2023/04/23 08:23:00;;;;;;;12.55;7.63;;;;;;;9.90;100.00;99559.03;5050275;28;20048;-45
2023/04/23 08:25:29;;;;;;;11.73;8.23;;;;;;;10.22;100.00;99563.16;5051724;28;20499;-46
2023/04/23 08:27:56;;;;;;;12.35;8.35;;;;;;;10.61;100.00;99563.75;5034035;28;20045;-45
2023/04/23 08:30:22;;;;;;;11.65;7.95;;;;;;;11.28;100.00;99570.13;5055664;28;20465;-45
2023/04/23 08:32:54;;;;;;;11.13;8.27;;;;;;;11.92;100.00;99568.06;5052140;28;20438;-47
2023/04/23 08:35:22;;;;;;;11.25;8.52;;;;;;;12.75;100.00;99572.66;5050146;28;20067;-45
2023/04/23 08:37:49;;;;;;;8.48;6.53;;;;;;;13.43;100.00;99565.41;5051671;28;20037;-50
2023/04/23 08:40:16;;;;;;;9.80;7.75;;;;;;;13.62;96.69;99579.00;5046417;28;20041;-46
2023/04/23 08:42:47;;;;;;;12.98;7.93;;;;;;;13.90;96.45;99579.03;5050428;28;20502;-53
2023/04/23 08:45:14;;;;;;;8.70;6.82;;;;;;;14.38;92.59;99578.66;5057145;28;20045;-45
2023/04/23 08:47:44;;;;;;;7.15;5.95;;;;;;;15.07;89.60;99579.72;5040418;28;20051;-45
2023/04/23 08:50:13;;;;;;;8.80;5.78;;;;;;;15.86;85.62;99582.97;5047617;28;20048;-45
2023/04/23 08:52:46;;;;;;;7.28;5.90;;;;;;;16.53;82.62;99590.84;5045534;28;20041;-45
2023/04/23 08:55:14;;;;;;;;;;;;;;;16.94;83.30;99594.44;5046649;28;20075;-45
2023/04/23 08:57:41;;;;;;;7.50;6.20;;;;;;;16.53;78.45;99585.25;5046909;28;19974;-47
2023/04/23 09:00:10;;;;;;;8.60;6.57;;;;;;;15.74;78.40;99589.81;5049056;28;20491;-49
2023/04/23 09:02:42;;;;;;;7.32;6.18;;;;;;;15.14;76.96;99593.63;5044037;28;20450;-45
2023/04/23 09:05:09;;;;;;;6.97;5.78;;;;;;;14.93;76.97;99590.91;5048714;28;20398;-45
2023/04/23 09:07:38;;;;;;;7.55;5.10;;;;;;;14.64;74.73;99587.41;5049813;28;20037;-48
2023/04/23 09:10:06;;;;;;;11.35;10.05;;;;;;;14.01;73.72;99588.19;5041822;28;20048;-49
2023/04/23 09:12:39;;;;;;;6.20;5.53;;;;;;;13.41;74.38;99585.28;5049660;28;20094;-44
2023/04/23 09:15:10;;;;;;;8.40;5.72;;;;;;;13.14;74.23;99580.41;5048622;28;20051;-48
2023/04/23 09:17:40;;;;;;;7.10;5.60;;;;;;;13.27;74.88;99595.53;5042740;28;20444;-45
2023/04/23 09:20:10;;;;;;;5.38;4.55;;;;;;;14.36;71.85;99601.34;5041561;28;20098;-48
2023/04/23 09:22:45;;;;;;;10.02;5.18;;;;;;;14.37;70.37;99593.81;5047432;28;20045;-45
2023/04/23 09:25:18;;;;;;;6.47;5.35;;;;;;;14.23;71.07;99599.34;5057528;28;20045;-45
2023/04/23 09:27:46;;;;;;;16.02;5.72;;;;;;;15.20;69.59;99600.38;5030403;28;20052;-45
2023/04/23 09:30:13;;;;;;;8.05;4.70;;;;;;;15.52;67.22;99613.44;5054256;28;20049;-45
2023/04/23 09:32:44;;;;;;;6.47;4.68;;;;;;;14.98;66.54;99610.03;5049654;28;20060;-44
2023/04/23 09:35:18;;;;;;;6.60;4.03;;;;;;;14.62;67.60;99614.06;5045191;28;20041;-44
2023/04/23 09:37:47;;;;;;;5.15;4.55;;;;;;;15.07;67.06;99618.75;5041839;28;20493;-47
2023/04/23 09:40:22;;;;;;;6.88;4.82;;;;;;;15.74;64.96;99618.50;5038777;28;20281;-49
2023/04/23 09:42:52;;;;;;;7.05;4.82;;;;;;;15.22;63.85;99625.88;5050405;28;20037;-46
2023/04/23 09:45:20;;;;;;;6.30;4.93;;;;;;;14.50;64.12;99620.84;5045533;28;20395;-49
2023/04/23 09:47:51;;;;;;;7.28;5.30;;;;;;;13.88;64.95;99625.94;5049268;28;20048;-46
2023/04/23 09:50:30;;;;;;;9.32;6.35;;;;;;;13.38;65.39;99630.56;5049899;28;20403;-45
2023/04/23 09:52:57;;;;;;;7.10;5.80;;;;;;;13.07;66.30;99624.84;5049119;28;20048;-46
2023/04/23 09:55:34;;;;;;;8.02;5.78;;;;;;;13.38;66.35;99616.66;5046104;28;20053;-46
2023/04/23 09:58:03;;;;;;;6.82;5.25;;;;;;;14.84;63.70;99629.56;5042319;28;20049;-46
2023/04/23 10:00:35;;;;;;;25.63;5.88;;;;;;;16.13;61.25;99631.41;5048833;28;20083;-46
2023/04/23 10:03:02;;;;;;;;;;;;;;;17.04;60.74;99635.47;5048754;28;20063;-47
2023/04/23 10:05:29;;;;;;;8.55;4.90;;;;;;;17.85;59.23;99636.50;5029993;28;20002;-46
2023/04/23 10:08:16;;;;;;;6.60;5.28;;;;;;;18.56;57.72;99634.22;5047340;28;20057;-45
2023/04/23 10:10:44;;;;;;;8.25;6.15;;;;;;;19.09;56.27;99644.50;5046087;28;20048;-46
2023/04/23 10:13:15;;;;;;;7.03;6.05;;;;;;;19.00;55.26;99644.28;5049749;28;20475;-46
2023/04/23 10:15:45;;;;;;;7.78;5.75;;;;;;;18.62;55.38;99645.75;5038985;28;20072;-46
2023/04/23 10:18:13;;;;;;;7.05;6.15;;;;;;;18.31;54.25;99642.22;5046104;28;20587;-45
2023/04/23 10:20:41;;;;;;;9.90;7.03;;;;;;;17.74;55.26;99638.66;5048543;28;20098;-46
2023/04/23 10:23:10;;;;;;;9.10;5.60;;;;;;;18.27;54.76;99635.88;5047670;28;20132;-46
2023/04/23 10:25:39;;;;;;;5.30;4.57;;;;;;;18.79;53.85;99648.28;5044965;28;20047;-48
2023/04/23 10:28:10;;;;;;;7.00;5.28;;;;;;;19.11;52.67;99650.50;5048322;28;20045;-46
2023/04/23 10:30:37;;;;;;;7.22;4.90;;;;;;;18.55;52.34;99652.28;5053397;28;20393;-46
2023/04/23 10:33:05;;;;;;;5.30;4.80;;;;;;;17.53;53.11;99654.50;5045778;28;20053;-48
2023/04/23 10:35:48;;;;;;;5.28;4.30;;;;;;;16.29;54.48;99654.84;5036491;28;20042;-46
2023/04/23 10:38:15;;;;;;;5.18;3.90;;;;;;;15.43;55.69;99658.50;5021892;28;20163;-47
2023/04/23 10:40:45;;;;;;;7.82;4.97;;;;;;;14.76;56.89;99658.63;5045634;28;20072;-48
2023/04/23 10:43:12;;;;;;;6.20;5.07;;;;;;;14.21;57.92;99660.19;5044718;28;20051;-45
2023/04/23 10:45:39;;;;;;;7.43;4.65;;;;;;;13.80;58.81;99652.16;5054278;28;20064;-47
2023/04/23 10:48:07;;;;;;;5.43;4.10;;;;;;;13.55;59.48;99662.41;5048512;28;20442;-50
2023/04/23 10:50:35;;;;;;;5.07;4.10;;;;;;;13.38;59.86;99661.13;5047225;28;20075;-45
2023/04/23 10:53:17;;;;;;;6.60;4.88;;;;;;;13.18;60.41;99661.81;5045672;28;20052;-47
2023/04/23 10:55:44;;;;;;;7.07;4.80;;;;;;;12.96;61.02;99668.41;5033946;28;20044;-44
2023/04/23 10:58:11;;;;;;;6.40;4.50;;;;;;;12.76;61.32;99663.09;5048592;28;20533;-45
2023/04/23 11:00:40;;;;;;;5.82;4.43;;;;;;;12.64;61.75;99657.88;5046963;28;20052;-47
2023/04/23 11:03:33;;;;;;;5.93;4.28;;;;;;;12.62;62.24;99665.00;5029269;28;20079;-45
2023/04/23 11:06:02;;;;;;;6.50;4.45;;;;;;;12.66;62.13;99672.16;5043140;28;20066;-46
2023/04/23 11:08:32;;;;;;;7.22;4.00;;;;;;;12.74;62.19;99678.56;5046530;28;20118;-46
2023/04/23 11:11:00;;;;;;;4.35;3.42;;;;;;;12.92;61.97;99664.81;5045638;28;20043;-46
2023/04/23 11:13:28;;;;;;;4.90;4.20;;;;;;;13.23;61.63;99678.13;5041995;28;20049;-39
2023/04/23 11:16:15;;;;;;;5.78;3.85;;;;;;;13.21;61.30;99686.84;5033039;28;20359;-47
2023/04/23 11:19:02;;;;;;;7.38;4.90;;;;;;;12.98;61.50;99682.69;5046965;28;20048;-46
2023/04/23 11:21:58;;;;;;;5.25;4.35;;;;;;;12.73;62.05;99682.53;5046622;28;20052;-45
2023/04/23 11:24:36;;;;;;;5.63;4.10;;;;;;;12.51;62.72;99684.34;5048705;28;20084;-45
2023/04/23 11:27:10;;;;;;;5.72;4.95;;;;;;;12.29;63.10;99685.31;5048589;28;20041;-45
2023/04/23 11:29:39;;;;;;;6.15;4.45;;;;;;;12.16;63.81;99697.88;5050206;28;20052;-46
2023/04/23 11:32:11;;;;;;;6.15;4.72;;;;;;;12.09;64.32;99693.06;5049721;28;20060;-47
2023/04/23 11:34:39;;;;;;;;;;;;;;;11.98;64.52;99694.13;5030762;28;20099;-45
2023/04/23 11:37:10;;;;;;;6.63;4.78;;;;;;;11.99;64.50;99698.50;5048256;28;19963;-48